createdAt,value
2022-08-11T00:02:56.082Z,101067.72
2022-08-11T00:07:58.443Z,101062.84
2022-08-11T00:12:59.085Z,101054.94
2022-08-11T00:18:00.011Z,101053.91
2022-08-11T00:23:07.564Z,101055.06
2022-08-11T00:28:06.884Z,101056.78
2022-08-11T00:33:06.830Z,101065.28
2022-08-11T00:38:08.634Z,101063.59
2022-08-11T00:43:20.366Z,101057.47
2022-08-11T00:48:29.742Z,101057.16
2022-08-11T00:53:46.925Z,101050.78
2022-08-11T00:59:35.587Z,101061.03
2022-08-11T01:05:29.783Z,101051.53
2022-08-11T01:11:07.189Z,101050.59
2022-08-11T01:17:02.699Z,101047.91
2022-08-11T01:22:35.097Z,101036.44
2022-08-11T01:28:08.982Z,101030.53
2022-08-11T01:33:43.625Z,101021.28
2022-08-11T01:39:21.469Z,101024.50
2022-08-11T01:44:56.606Z,101017.47
2022-08-11T01:50:10.620Z,101011.53
2022-08-11T01:55:16.985Z,101011.72
2022-08-11T02:00:21.192Z,101011.16
2022-08-11T02:05:37.852Z,101004.56
2022-08-11T02:11:02.356Z,101002.72
2022-08-11T02:16:15.825Z,101013.97
2022-08-11T02:21:39.694Z,101017.38
2022-08-11T02:26:45.688Z,101012.53
2022-08-11T02:32:28.833Z,101018.22
2022-08-11T02:37:38.638Z,101021.91
2022-08-11T02:42:44.026Z,101017.38
2022-08-11T02:48:06.912Z,101021.47
2022-08-11T02:53:14.218Z,101023.00
2022-08-11T02:58:19.964Z,101026.56
2022-08-11T03:03:37.300Z,101025.00
2022-08-11T03:09:04.088Z,101032.22
2022-08-11T03:14:35.263Z,101028.69
2022-08-11T03:19:47.934Z,101041.63
2022-08-11T03:24:59.187Z,101041.78
2022-08-11T03:30:07.632Z,101048.13
2022-08-11T03:35:11.564Z,101047.03
2022-08-11T03:40:59.665Z,101050.16
2022-08-11T03:46:05.324Z,101059.06
2022-08-11T03:51:14.629Z,101059.44
2022-08-11T03:56:46.864Z,101052.44
2022-08-11T04:02:13.429Z,101048.19
2022-08-11T04:07:40.947Z,101050.56
2022-08-11T04:13:13.513Z,101049.41
2022-08-11T04:19:06.060Z,101046.22
2022-08-11T04:24:39.992Z,101062.97
2022-08-11T04:30:02.109Z,101056.97
2022-08-11T04:35:20.522Z,101061.84
2022-08-11T04:40:52.964Z,101075.00
2022-08-11T04:46:10.741Z,101075.63
2022-08-11T04:51:49.635Z,101069.56
2022-08-11T04:57:09.376Z,101075.00
2022-08-11T05:03:00.787Z,101067.81
2022-08-11T05:08:28.348Z,101078.16
2022-08-11T05:13:50.541Z,101068.88
2022-08-11T05:19:10.363Z,101069.25
2022-08-11T05:24:35.710Z,101073.78
2022-08-11T05:30:05.977Z,101082.88
2022-08-11T05:35:08.688Z,101078.16
2022-08-11T05:40:28.134Z,101081.81
2022-08-11T05:46:02.847Z,101070.13
2022-08-11T05:51:29.922Z,101067.47
2022-08-11T05:56:31.399Z,101068.47
2022-08-11T06:01:35.869Z,101072.09
2022-08-11T06:06:35.739Z,101060.81
2022-08-11T06:11:43.705Z,101067.19
2022-08-11T06:16:51.240Z,101056.91
2022-08-11T06:21:53.932Z,101051.13
2022-08-11T06:27:11.889Z,101053.13
2022-08-11T06:32:17.117Z,101053.78
2022-08-11T06:37:33.203Z,101040.47
2022-08-11T06:43:03.348Z,101047.50
2022-08-11T06:48:07.852Z,101050.31
2022-08-11T06:53:10.703Z,101044.97
2022-08-11T06:58:35.976Z,101046.56
2022-08-11T07:03:45.795Z,101044.75
2022-08-11T07:09:27.863Z,101043.56
2022-08-11T07:14:48.952Z,101041.84
2022-08-11T07:20:12.195Z,101043.72
2022-08-11T07:25:56.761Z,101040.38
2022-08-11T07:30:59.804Z,101038.97
2022-08-11T07:36:03.168Z,101042.09
2022-08-11T07:41:02.073Z,101042.25
2022-08-11T07:46:21.663Z,101037.09
2022-08-11T07:51:40.032Z,101030.63
2022-08-11T07:57:07.140Z,101031.28
2022-08-11T08:02:16.778Z,101036.75
2022-08-11T08:07:38.762Z,101025.53
2022-08-11T08:12:56.006Z,101019.00
2022-08-11T08:18:09.040Z,101018.06
2022-08-11T08:23:33.286Z,101023.28
2022-08-11T08:28:35.069Z,101010.50
2022-08-11T08:33:34.505Z,101018.03
2022-08-11T08:38:34.620Z,100999.94
2022-08-11T08:43:48.791Z,101003.34
2022-08-11T08:48:49.444Z,101000.00
2022-08-11T08:53:56.467Z,100986.59
2022-08-11T08:59:00.698Z,100992.47
2022-08-11T09:04:05.030Z,100989.53
2022-08-11T09:14:49.938Z,100972.28
2022-08-11T09:19:54.136Z,100970.13
2022-08-11T09:25:15.158Z,100966.47
2022-08-11T09:30:14.428Z,100966.88
2022-08-11T09:35:14.051Z,100943.59
2022-08-11T09:40:32.396Z,100951.25
2022-08-11T09:45:40.522Z,100938.22
2022-08-11T09:50:41.181Z,100935.19
2022-08-11T09:55:45.011Z,100925.44
2022-08-11T10:00:45.759Z,100918.47
2022-08-11T10:06:08.001Z,100919.66
2022-08-11T10:11:13.599Z,100919.81
2022-08-11T10:16:16.271Z,100922.22
2022-08-11T10:21:19.999Z,100919.38
2022-08-11T10:26:39.802Z,100916.78
2022-08-11T10:31:57.476Z,100915.53
2022-08-11T10:37:03.158Z,100930.50
2022-08-11T10:42:41.341Z,100918.91
2022-08-11T10:47:49.006Z,100919.47
2022-08-11T10:53:08.257Z,100919.88
2022-08-11T10:58:26.124Z,100902.00
2022-08-11T11:03:27.792Z,100896.63
2022-08-11T11:14:11.749Z,100904.31
2022-08-11T11:19:12.555Z,100908.47
2022-08-11T11:24:18.075Z,100899.41
2022-08-11T11:29:41.860Z,100891.44
2022-08-11T14:13:17.742Z,100831.31
2022-08-11T14:18:21.526Z,100826.03
2022-08-11T14:23:30.669Z,100834.41
2022-08-11T14:28:40.088Z,100827.78
2022-08-11T14:33:59.528Z,100833.06
2022-08-11T14:39:06.083Z,100826.69
2022-08-11T14:44:27.800Z,100830.44
2022-08-11T14:49:28.107Z,100822.91
2022-08-11T14:54:57.654Z,100825.22
2022-08-11T14:59:59.326Z,100825.00
2022-08-11T15:05:00.630Z,100805.03
2022-08-11T15:10:16.287Z,100808.91
2022-08-11T15:15:34.989Z,100804.97
2022-08-11T15:20:53.716Z,100801.00
2022-08-11T15:25:56.924Z,100803.22
2022-08-11T15:31:16.551Z,100798.44
2022-08-11T15:36:33.798Z,100794.81
2022-08-11T15:41:58.892Z,100785.28
2022-08-11T15:47:15.855Z,100785.25
2022-08-11T15:52:26.944Z,100782.44
2022-08-11T15:57:49.288Z,100776.91
2022-08-11T16:03:15.582Z,100769.41
2022-08-11T16:08:16.890Z,100770.94
2022-08-11T16:13:44.109Z,100777.31
2022-08-11T16:18:51.706Z,100782.69
2022-08-11T16:23:56.648Z,100775.09
2022-08-11T16:28:59.009Z,100782.53
2022-08-11T16:34:02.489Z,100780.22
2022-08-11T16:39:02.857Z,100769.53
2022-08-11T16:44:19.427Z,100768.13
2022-08-11T16:49:39.871Z,100779.19
2022-08-11T16:54:39.643Z,100795.84
2022-08-11T16:59:43.822Z,100790.13
2022-08-11T17:05:06.509Z,100789.75
2022-08-11T17:10:52.881Z,100790.38
2022-08-11T17:16:12.127Z,100798.75
2022-08-11T17:21:19.043Z,100798.41
2022-08-11T17:26:21.237Z,100811.72
2022-08-11T17:31:39.875Z,100814.34
2022-08-11T17:36:45.838Z,100816.06
2022-08-11T17:42:03.806Z,100818.06
2022-08-11T17:47:25.557Z,100825.53
2022-08-11T17:52:46.043Z,100835.50
2022-08-11T17:58:02.736Z,100835.34
2022-08-11T18:03:20.818Z,100843.75
2022-08-11T18:08:39.811Z,100840.03
2022-08-11T18:13:58.991Z,100849.22
2022-08-11T18:19:15.383Z,100852.19
2022-08-11T18:24:34.838Z,100855.75
2022-08-11T18:29:53.138Z,100857.78
2022-08-11T18:35:11.460Z,100864.25
2022-08-11T18:40:35.145Z,100869.06
2022-08-11T18:46:06.143Z,100876.97
2022-08-11T18:51:30.935Z,100887.75
2022-08-11T18:56:54.602Z,100897.28
2022-08-11T19:02:13.394Z,100896.63
2022-08-11T19:07:32.776Z,100897.84
2022-08-11T19:12:56.527Z,100896.53
2022-08-11T19:18:16.631Z,100895.88
2022-08-11T19:23:36.112Z,100896.22
2022-08-11T19:28:56.058Z,100904.50
2022-08-11T19:34:13.458Z,100906.09
2022-08-11T19:39:31.212Z,100913.53
2022-08-11T19:44:49.534Z,100916.38
2022-08-11T19:50:07.714Z,100912.53
2022-08-11T19:55:25.991Z,100911.16
2022-08-11T20:00:44.373Z,100904.75
2022-08-11T20:06:02.075Z,100908.28
2022-08-11T20:11:23.104Z,100906.34
2022-08-11T20:16:42.083Z,100907.31
2022-08-11T20:22:00.439Z,100919.47
2022-08-11T20:27:24.436Z,100918.56
2022-08-11T20:32:42.671Z,100931.16
2022-08-11T20:38:01.815Z,100941.88
2022-08-11T20:44:06.502Z,100948.25
2022-08-11T20:48:58.783Z,100950.78
2022-08-11T20:54:17.107Z,100958.16
2022-08-11T20:59:56.732Z,100951.75
2022-08-11T21:05:19.361Z,100957.59
2022-08-11T21:10:40.242Z,100963.09
2022-08-11T21:16:01.224Z,100976.50
2022-08-11T21:21:23.342Z,100981.81
2022-08-11T21:26:41.258Z,100981.78
2022-08-11T21:31:58.926Z,100981.78
2022-08-11T21:37:19.403Z,100981.00
2022-08-11T21:42:39.658Z,100965.38
2022-08-11T21:48:01.211Z,100979.63
2022-08-11T21:53:20.144Z,100981.47
2022-08-11T21:58:37.049Z,100987.91
2022-08-11T22:03:53.781Z,100987.22
2022-08-11T22:09:11.799Z,100983.88
2022-08-11T22:14:28.251Z,100987.94
2022-08-11T22:19:45.114Z,100979.38
2022-08-11T22:25:11.647Z,100972.84
2022-08-11T22:30:32.874Z,100980.75
2022-08-11T22:35:50.948Z,100982.28
2022-08-11T22:41:08.885Z,100983.13
2022-08-11T22:46:25.469Z,100981.44
2022-08-11T22:51:42.868Z,100985.34
2022-08-11T22:57:00.561Z,100983.00
2022-08-11T23:02:16.931Z,100979.13
2022-08-11T23:07:50.551Z,100974.06
2022-08-11T23:13:09.330Z,100976.78
2022-08-11T23:18:26.050Z,100979.00
2022-08-11T23:23:43.388Z,100974.78
2022-08-11T23:29:04.913Z,100973.47
2022-08-11T23:35:02.530Z,100971.47
2022-08-11T23:40:01.002Z,100975.69
2022-08-11T23:45:22.623Z,100964.59
2022-08-11T23:50:40.737Z,100972.38
2022-08-11T23:55:57.406Z,100960.44
